Time;durP1;ratioP1;P1;durP2;ratioP2;P2;SDS_P1;SDS_P2;PMS_P1;PMS_P2;Temp;Humidity;BMP_temperature;BMP_pressure;BME280_temperature;BME280_humidity;BME280_pressure;Samples;Min_cycle;Max_cycle;Signal;HPM_P1;HPM_P2
2022/06/03 00:02:53;;;;;;;1.70;1.60;;;20.20;42.00;;;;;;4954574;28;20455;-59
2022/06/03 00:05:22;;;;;;;1.63;1.53;;;20.20;42.00;;;;;;4978074;28;20550;-58
2022/06/03 00:08:04;;;;;;;1.90;1.80;;;20.20;42.10;;;;;;4977060;28;20450;-59
2022/06/03 00:10:38;;;;;;;1.87;1.77;;;20.20;42.00;;;;;;4977363;28;20426;-59
2022/06/03 00:13:35;;;;;;;1.73;1.63;;;20.20;42.00;;;;;;4975703;28;20550;-58
2022/06/03 00:16:13;;;;;;;2.20;2.10;;;20.20;42.00;;;;;;4974433;28;20479;-58
2022/06/03 00:18:50;;;;;;;1.80;1.70;;;20.30;42.10;;;;;;4976440;28;20469;-58
2022/06/03 00:21:42;;;;;;;1.80;1.70;;;20.20;42.10;;;;;;4973543;28;20527;-58
2022/06/03 00:24:41;;;;;;;1.90;1.80;;;20.20;42.10;;;;;;4975190;28;20474;-60
2022/06/03 00:27:29;;;;;;;1.90;1.80;;;20.20;42.00;;;;;;4972690;28;20482;-58
2022/06/03 00:30:32;;;;;;;1.93;1.83;;;20.20;42.10;;;;;;4974434;28;20458;-58
2022/06/03 00:33:22;;;;;;;1.80;1.70;;;20.20;42.00;;;;;;4974802;28;20473;-58
2022/06/03 00:36:00;;;;;;;1.73;1.63;;;20.20;42.10;;;;;;4976195;28;21006;-59
2022/06/03 00:38:28;;;;;;;1.63;1.53;;;20.20;42.00;;;;;;4983968;28;20458;-59
2022/06/03 00:41:35;;;;;;;1.70;1.60;;;20.20;42.10;;;;;;4980657;28;20545;-59
2022/06/03 00:44:32;;;;;;;1.70;1.60;;;20.20;42.00;;;;;;4955548;28;20463;-58
2022/06/03 00:47:00;;;;;;;1.93;1.83;;;20.20;42.00;;;;;;4981678;28;20462;-58
2022/06/03 00:50:03;;;;;;;1.83;1.73;;;20.20;42.10;;;;;;4975247;28;20459;-58
2022/06/03 00:52:59;;;;;;;1.97;1.87;;;20.20;42.10;;;;;;4983092;28;20447;-58
2022/06/03 00:55:41;;;;;;;2.07;1.97;;;20.20;42.10;;;;;;4976921;28;20478;-58
2022/06/03 00:58:28;;;;;;;1.90;1.80;;;20.20;42.10;;;;;;4979523;28;20526;-58
2022/06/03 01:01:03;;;;;;;1.83;1.73;;;20.20;42.10;;;;;;4979891;28;20529;-58
2022/06/03 01:03:47;;;;;;;1.77;1.67;;;20.20;42.10;;;;;;4973475;28;20433;-58
2022/06/03 01:07:04;;;;;;;1.67;1.57;;;20.20;42.10;;;;;;4980329;28;20469;-59
2022/06/03 01:09:56;;;;;;;1.80;1.70;;;20.20;42.10;;;;;;4976594;28;20600;-58
2022/06/03 01:12:56;;;;;;;1.83;1.73;;;20.20;42.10;;;;;;4981959;28;20557;-58
2022/06/03 01:15:54;;;;;;;1.80;1.70;;;20.20;42.10;;;;;;4980136;28;20453;-58
2022/06/03 01:18:37;;;;;;;1.80;1.70;;;20.20;42.10;;;;;;4981029;28;20432;-58
2022/06/03 01:21:33;;;;;;;1.70;1.60;;;20.20;42.10;;;;;;4982277;28;20450;-59
2022/06/03 01:24:17;;;;;;;1.90;1.80;;;20.20;42.10;;;;;;4993451;28;21076;-58
2022/06/03 01:27:13;;;;;;;1.90;1.80;;;20.20;42.10;;;;;;4982255;28;20438;-58
2022/06/03 01:29:42;;;;;;;1.90;1.80;;;20.20;42.10;;;;;;4977091;28;20451;-58
2022/06/03 01:32:26;;;;;;;1.77;1.67;;;20.20;42.10;;;;;;4995832;28;20805;-58
2022/06/03 01:35:30;;;;;;;1.70;1.60;;;20.20;42.10;;;;;;4993606;28;20462;-59
2022/06/03 01:38:19;;;;;;;1.90;1.80;;;20.20;42.10;;;;;;4978818;28;20465;-58
2022/06/03 01:40:48;;;;;;;1.80;1.70;;;20.20;42.10;;;;;;4959207;28;20785;-58
2022/06/03 01:43:38;;;;;;;2.00;1.90;;;20.20;42.10;;;;;;4975507;28;20778;-58
2022/06/03 01:46:36;;;;;;;1.97;1.87;;;20.20;42.10;;;;;;4993441;28;20513;-58
2022/06/03 01:49:29;;;;;;;2.10;2.00;;;20.20;42.10;;;;;;4975278;28;20447;-58
2022/06/03 01:52:41;;;;;;;3.67;1.80;;;20.20;42.10;;;;;;4977888;28;20459;-58
2022/06/03 01:55:39;;;;;;;1.90;1.80;;;20.20;41.80;;;;;;4980484;28;20449;-58
2022/06/03 01:58:29;;;;;;;1.90;1.80;;;20.20;42.10;;;;;;4984846;28;20481;-58
2022/06/03 02:01:17;;;;;;;2.13;1.50;;;20.20;42.10;;;;;;4983252;28;20467;-58
2022/06/03 02:03:58;;;;;;;1.90;1.80;;;20.20;42.10;;;;;;4975546;28;20474;-58
2022/06/03 02:07:00;;;;;;;1.90;1.80;;;20.20;42.10;;;;;;4985683;28;20527;-59
2022/06/03 02:09:57;;;;;;;2.17;1.97;;;20.20;42.10;;;;;;4978854;28;20462;-58
2022/06/03 02:12:39;;;;;;;1.70;1.60;;;20.20;42.10;;;;;;4984955;28;20500;-58
2022/06/03 02:15:40;;;;;;;1.80;1.70;;;20.20;42.10;;;;;;4980480;28;20491;-58
2022/06/03 02:18:44;;;;;;;1.77;1.67;;;20.20;42.10;;;;;;4979699;28;20450;-58
2022/06/03 02:21:21;;;;;;;2.00;1.90;;;20.20;42.10;;;;;;4979643;28;20445;-58
2022/06/03 02:24:08;;;;;;;2.20;2.10;;;20.20;42.20;;;;;;4976980;28;20738;-58
2022/06/03 02:26:55;;;;;;;1.83;1.73;;;20.20;42.10;;;;;;4984102;28;20610;-58
2022/06/03 02:32:57;;;;;;;2.17;2.07;;;20.20;42.10;;;;;;4985476;28;20501;-58
2022/06/03 02:35:52;;;;;;;2.23;1.90;;;20.20;42.10;;;;;;4991823;28;20488;-58
2022/06/03 02:38:39;;;;;;;1.80;1.70;;;20.20;42.10;;;;;;4979806;28;20509;-59
2022/06/03 02:41:26;;;;;;;2.10;2.00;;;20.20;42.20;;;;;;4981187;28;20819;-58
2022/06/03 02:44:08;;;;;;;2.00;1.90;;;20.10;42.00;;;;;;4977560;28;20459;-58
2022/06/03 02:46:49;;;;;;;2.00;1.80;;;20.20;42.10;;;;;;4980517;28;20425;-58
2022/06/03 02:49:48;;;;;;;1.90;1.80;;;20.20;42.10;;;;;;4977765;28;20529;-58
2022/06/03 02:52:38;;;;;;;1.80;1.70;;;20.20;42.10;;;;;;4979498;28;20460;-58
2022/06/03 02:55:32;;;;;;;1.77;1.67;;;20.10;42.00;;;;;;4978773;28;20430;-58
2022/06/03 02:58:22;;;;;;;2.13;2.03;;;20.10;42.00;;;;;;4977143;28;21100;-58
2022/06/03 03:01:05;;;;;;;1.80;1.70;;;20.20;42.10;;;;;;4978469;28;20453;-58
2022/06/03 03:03:41;;;;;;;2.03;1.93;;;20.20;42.10;;;;;;4974706;28;20550;-58
2022/06/03 03:06:28;;;;;;;1.90;1.80;;;20.20;42.20;;;;;;4977390;28;20490;-58
2022/06/03 03:08:57;;;;;;;1.90;1.80;;;20.10;42.00;;;;;;4977801;28;20462;-58
2022/06/03 03:11:56;;;;;;;1.80;1.70;;;20.20;42.10;;;;;;4980276;28;20454;-58
2022/06/03 03:14:50;;;;;;;2.07;1.97;;;20.20;42.10;;;;;;4976803;28;20447;-58
2022/06/03 03:17:37;;;;;;;1.97;1.87;;;20.10;42.00;;;;;;4976407;28;20447;-58
2022/06/03 03:20:03;;;;;;;2.17;2.07;;;20.20;42.10;;;;;;4983670;28;20947;-58
2022/06/03 03:22:31;;;;;;;1.97;1.87;;;20.10;42.00;;;;;;4979057;28;20428;-58
2022/06/03 03:25:18;;;;;;;1.93;1.83;;;20.10;42.00;;;;;;4979940;28;20245;-58
2022/06/03 03:28:11;;;;;;;2.07;1.97;;;20.10;42.00;;;;;;4982898;28;20466;-58
2022/06/03 03:30:52;;;;;;;1.90;1.80;;;20.10;42.00;;;;;;4976872;28;20939;-58
2022/06/03 03:34:04;;;;;;;1.90;1.80;;;20.10;42.00;;;;;;4985650;28;20812;-58
2022/06/03 03:36:53;;;;;;;2.30;2.20;;;20.20;42.10;;;;;;4977119;28;20558;-58
2022/06/03 03:39:51;;;;;;;2.10;2.00;;;20.10;41.90;;;;;;4984052;28;20425;-58
2022/06/03 03:42:57;;;;;;;2.00;1.90;;;20.10;42.00;;;;;;4991551;28;20485;-59
2022/06/03 03:45:51;;;;;;;2.20;2.10;;;20.10;42.00;;;;;;4984659;28;20451;-58
2022/06/03 03:48:35;;;;;;;2.10;2.00;;;20.10;42.00;;;;;;4977630;28;20486;-58
2022/06/03 03:51:09;;;;;;;2.20;2.10;;;20.10;42.00;;;;;;4978086;28;20974;-58
2022/06/03 03:53:59;;;;;;;2.07;1.97;;;20.20;42.10;;;;;;4980158;28;20458;-58
2022/06/03 03:56:49;;;;;;;2.00;1.90;;;20.10;42.00;;;;;;4977515;28;20505;-58
2022/06/03 03:59:49;;;;;;;1.90;1.80;;;20.10;42.00;;;;;;4982693;28;20455;-58
2022/06/03 04:03:03;;;;;;;2.27;2.17;;;20.10;42.00;;;;;;4978313;28;20465;-58
2022/06/03 04:05:47;;;;;;;1.87;1.77;;;20.10;42.00;;;;;;4981330;28;20430;-58
2022/06/03 04:08:32;;;;;;;2.00;1.90;;;20.10;42.00;;;;;;4979282;28;20492;-58
2022/06/03 04:11:18;;;;;;;1.90;1.80;;;20.10;42.00;;;;;;4978672;28;20470;-58
2022/06/03 04:14:32;;;;;;;2.00;1.90;;;20.10;42.00;;;;;;4979680;28;20488;-58
2022/06/03 04:17:09;;;;;;;2.00;1.90;;;20.10;42.00;;;;;;4973647;28;20451;-58
2022/06/03 04:20:13;;;;;;;2.40;2.30;;;20.10;42.00;;;;;;4978247;28;20466;-58
2022/06/03 04:23:12;;;;;;;2.27;2.17;;;20.10;42.00;;;;;;4976064;28;20520;-58
2022/06/03 04:26:05;;;;;;;2.20;2.10;;;20.10;42.00;;;;;;4977801;28;20474;-58
2022/06/03 04:28:58;;;;;;;2.10;2.00;;;20.10;42.00;;;;;;4990717;28;20538;-58
2022/06/03 04:31:33;;;;;;;2.30;2.20;;;20.10;42.00;;;;;;4976125;28;20454;-58
2022/06/03 04:34:35;;;;;;;2.13;2.03;;;20.10;42.00;;;;;;4975892;28;20458;-61
2022/06/03 04:37:36;;;;;;;2.00;1.90;;;20.10;42.00;;;;;;4972202;28;20463;-60
2022/06/03 04:40:48;;;;;;;2.03;1.93;;;20.10;42.00;;;;;;4973425;28;20492;-62
2022/06/03 04:43:41;;;;;;;2.10;2.00;;;20.10;42.00;;;;;;4976673;28;20831;-60
2022/06/03 04:46:25;;;;;;;1.90;1.80;;;20.10;41.90;;;;;;4986295;28;20438;-61
2022/06/03 04:49:18;;;;;;;1.80;1.70;;;20.20;42.00;;;;;;4984057;28;20964;-60
2022/06/03 04:52:05;;;;;;;1.90;1.80;;;20.10;41.90;;;;;;4985519;28;20569;-60
2022/06/03 04:55:12;;;;;;;2.10;2.00;;;20.20;42.80;;;;;;4985368;28;20472;-59
2022/06/03 04:58:24;;;;;;;2.30;2.20;;;20.20;41.90;;;;;;4981130;28;20465;-59
2022/06/03 05:01:21;;;;;;;1.87;1.77;;;20.20;41.90;;;;;;4986304;28;20417;-59
2022/06/03 05:04:20;;;;;;;2.70;2.60;;;20.20;41.90;;;;;;4978993;28;21002;-59
2022/06/03 05:07:22;;;;;;;2.00;1.90;;;20.20;41.90;;;;;;4986746;28;20455;-59
2022/06/03 05:10:25;;;;;;;2.00;1.80;;;20.20;41.90;;;;;;4981392;28;20446;-59
2022/06/03 05:13:02;;;;;;;1.80;1.70;;;20.20;41.80;;;;;;4985833;28;20456;-60
2022/06/03 05:16:04;;;;;;;2.07;1.97;;;20.20;41.90;;;;;;4981885;28;20474;-59
2022/06/03 05:18:44;;;;;;;3.57;2.23;;;20.20;41.90;;;;;;4980915;28;20457;-59
2022/06/03 05:21:45;;;;;;;2.37;2.27;;;20.20;41.80;;;;;;4982045;28;20471;-59
2022/06/03 05:24:53;;;;;;;2.17;2.07;;;20.30;41.80;;;;;;4978489;28;20532;-60
2022/06/03 05:27:47;;;;;;;3.30;2.00;;;20.30;41.90;;;;;;4989586;28;20424;-60
2022/06/03 05:30:20;;;;;;;2.13;2.03;;;20.30;41.80;;;;;;4982178;28;20464;-60
2022/06/03 05:33:26;;;;;;;2.23;2.13;;;20.20;41.80;;;;;;4982884;28;20478;-60
2022/06/03 05:36:15;;;;;;;2.67;1.90;;;20.30;41.80;;;;;;4981365;28;20504;-60
2022/06/03 05:38:53;;;;;;;2.10;2.00;;;20.30;41.80;;;;;;4981730;28;20459;-59
2022/06/03 05:44:48;;;;;;;3.77;2.03;;;20.30;41.70;;;;;;4977443;28;20514;-60
2022/06/03 05:47:32;;;;;;;2.83;2.50;;;20.30;41.70;;;;;;4984328;28;20570;-62
2022/06/03 05:50:02;;;;;;;2.33;2.03;;;20.30;41.70;;;;;;4983106;28;20811;-62
2022/06/03 05:52:43;;;;;;;3.70;2.07;;;20.30;41.70;;;;;;4984046;28;20869;-59
2022/06/03 05:55:30;;;;;;;3.07;1.97;;;20.30;41.70;;;;;;4980355;28;20454;-59
2022/06/03 05:58:13;;;;;;;4.27;2.20;;;20.30;41.70;;;;;;4984361;28;20544;-60
2022/06/03 06:01:16;;;;;;;1.83;1.73;;;20.30;41.70;;;;;;4988047;28;20469;-58
2022/06/03 06:04:13;;;;;;;2.03;1.93;;;20.30;41.60;;;;;;4981420;28;20470;-58
2022/06/03 06:06:47;;;;;;;2.83;2.30;;;20.30;42.00;;;;;;4986804;28;21005;-58
2022/06/03 06:09:28;;;;;;;4.30;2.40;;;20.30;42.50;;;;;;4981431;28;20446;-58
2022/06/03 06:11:56;;;;;;;2.00;1.90;;;20.30;41.70;;;;;;4982512;28;20463;-58
2022/06/03 06:14:50;;;;;;;3.00;2.43;;;20.30;41.70;;;;;;4982116;28;20459;-57
2022/06/03 06:17:36;;;;;;;2.70;1.90;;;20.30;41.70;;;;;;4982572;28;20447;-58
2022/06/03 06:20:12;;;;;;;6.80;2.27;;;20.30;41.60;;;;;;4983373;28;20443;-57
2022/06/03 06:22:48;;;;;;;2.30;2.07;;;20.30;41.70;;;;;;4982339;28;20802;-58
2022/06/03 06:25:33;;;;;;;2.10;2.00;;;20.30;41.70;;;;;;4985308;28;20447;-59
2022/06/03 06:28:01;;;;;;;2.13;1.93;;;20.30;41.70;;;;;;4982625;28;20447;-58
2022/06/03 06:30:45;;;;;;;2.20;2.00;;;20.30;41.70;;;;;;4979353;28;20450;-58
2022/06/03 06:33:52;;;;;;;2.50;2.30;;;20.30;41.70;;;;;;4984437;28;20440;-57
2022/06/03 06:36:51;;;;;;;2.60;2.50;;;20.30;41.60;;;;;;4979910;28;20462;-59
2022/06/03 06:39:41;;;;;;;2.07;1.97;;;20.30;41.70;;;;;;4979292;28;20481;-59
2022/06/03 06:42:19;;;;;;;1.97;1.87;;;20.30;41.70;;;;;;4981174;28;20513;-59
2022/06/03 06:45:02;;;;;;;2.03;1.93;;;20.30;42.40;;;;;;4976694;28;20881;-59
2022/06/03 06:47:35;;;;;;;2.50;1.83;;;20.30;41.70;;;;;;4981375;28;20432;-59
2022/06/03 06:50:15;;;;;;;1.70;1.60;;;20.30;41.70;;;;;;4977981;28;20860;-59
2022/06/03 06:52:48;;;;;;;2.13;1.93;;;20.30;41.60;;;;;;4980352;28;20509;-58
2022/06/03 06:55:45;;;;;;;2.43;1.77;;;20.30;41.60;;;;;;4981237;28;20971;-58
2022/06/03 06:58:33;;;;;;;2.07;1.87;;;20.30;41.60;;;;;;4980018;28;20501;-59
2022/06/03 07:01:03;;;;;;;2.73;1.93;;;20.30;41.60;;;;;;4980830;28;20525;-58
2022/06/03 07:03:41;;;;;;;1.90;1.77;;;20.30;41.60;;;;;;4978259;28;20482;-59
2022/06/03 07:06:15;;;;;;;2.00;1.90;;;20.30;41.60;;;;;;4979915;28;20451;-59
2022/06/03 07:08:54;;;;;;;1.80;1.70;;;20.30;41.60;;;;;;4980436;28;20968;-59
2022/06/03 07:11:27;;;;;;;1.90;1.80;;;20.40;41.60;;;;;;4982501;28;20450;-59
2022/06/03 07:14:03;;;;;;;2.00;1.90;;;20.40;41.70;;;;;;4982268;28;20525;-60
2022/06/03 07:20:11;;;;;;;1.70;1.60;;;20.40;41.60;;;;;;4983433;28;20469;-60
2022/06/03 07:22:50;;;;;;;1.93;1.80;;;20.40;41.60;;;;;;4978291;28;20455;-59
2022/06/03 07:25:30;;;;;;;2.30;2.20;;;20.40;41.60;;;;;;4977282;28;20463;-59
2022/06/03 07:28:01;;;;;;;1.87;1.77;;;20.40;41.60;;;;;;4983450;28;20558;-58
2022/06/03 07:30:56;;;;;;;2.20;2.10;;;20.40;41.60;;;;;;4982060;28;20467;-59
2022/06/03 07:33:36;;;;;;;2.00;1.90;;;20.40;41.60;;;;;;4966573;28;20440;-60
2022/06/03 07:36:26;;;;;;;2.40;2.17;;;20.40;41.60;;;;;;4982404;28;20477;-57
2022/06/03 07:38:56;;;;;;;2.00;1.60;;;20.40;42.30;;;;;;5002786;28;20811;-58
2022/06/03 07:41:39;;;;;;;2.00;1.90;;;20.40;41.60;;;;;;4983419;28;20475;-59
2022/06/03 07:44:15;;;;;;;2.20;2.10;;;20.40;41.60;;;;;;4981487;28;20490;-59
2022/06/03 07:47:00;;;;;;;2.00;1.90;;;20.40;41.60;;;;;;4982819;28;20455;-59
2022/06/03 07:49:28;;;;;;;1.97;1.87;;;20.40;41.60;;;;;;4980729;28;21038;-58
2022/06/03 07:51:59;;;;;;;2.30;1.87;;;20.40;41.70;;;;;;4984236;28;20479;-58
2022/06/03 07:54:31;;;;;;;2.30;2.20;;;20.40;41.60;;;;;;4981371;28;20533;-59
2022/06/03 07:57:07;;;;;;;2.40;2.00;;;20.40;41.60;;;;;;4980801;28;20483;-57
2022/06/03 07:59:38;;;;;;;2.17;2.07;;;20.40;41.60;;;;;;4981804;28;20451;-58
2022/06/03 08:02:16;;;;;;;1.93;1.73;;;20.40;41.70;;;;;;4981835;28;20887;-59
2022/06/03 08:04:45;;;;;;;2.30;2.20;;;20.40;41.70;;;;;;4977527;28;20484;-57
2022/06/03 08:13:00;;;;;;;2.33;2.10;;;20.40;41.70;;;;;;4979298;28;20502;-57
2022/06/03 08:16:09;;;;;;;1.93;1.83;;;20.40;41.80;;;;;;4981530;28;20426;-58
2022/06/03 08:18:40;;;;;;;2.10;1.90;;;20.40;41.70;;;;;;4981692;28;20481;-59
2022/06/03 08:21:09;;;;;;;2.40;2.20;;;20.40;41.70;;;;;;4978425;28;20562;-59
2022/06/03 08:23:35;;;;;;;1.73;1.63;;;20.40;41.70;;;;;;4978367;28;20971;-59
2022/06/03 08:26:11;;;;;;;2.13;2.03;;;20.40;41.70;;;;;;4983173;28;20475;-59
2022/06/03 08:28:39;;;;;;;1.93;1.83;;;20.40;41.70;;;;;;4980913;28;20262;-58
2022/06/03 08:31:06;;;;;;;1.97;1.87;;;20.40;41.70;;;;;;4981042;28;20465;-57
2022/06/03 08:33:47;;;;;;;2.20;2.00;;;20.40;41.70;;;;;;4980328;28;20489;-57
2022/06/03 08:36:16;;;;;;;1.90;1.80;;;20.40;41.70;;;;;;4979709;28;20469;-57
2022/06/03 08:38:55;;;;;;;2.00;1.90;;;20.40;41.70;;;;;;4985452;28;20450;-57
2022/06/03 08:41:20;;;;;;;1.87;1.77;;;20.40;41.70;;;;;;4981279;28;20517;-56
2022/06/03 08:43:56;;;;;;;1.90;1.80;;;20.40;41.70;;;;;;4977078;28;20475;-57
2022/06/03 08:46:37;;;;;;;2.17;2.07;;;20.40;41.70;;;;;;4977187;28;20712;-57
2022/06/03 08:49:09;;;;;;;2.50;2.00;;;20.30;41.70;;;;;;4978117;28;20457;-57
2022/06/03 08:51:47;;;;;;;2.03;1.93;;;20.40;41.80;;;;;;5002794;28;20521;-57
2022/06/03 08:54:35;;;;;;;2.10;2.00;;;20.30;41.70;;;;;;4981009;28;20436;-57
2022/06/03 08:57:08;;;;;;;2.30;2.20;;;20.30;41.70;;;;;;4987275;28;20459;-57
2022/06/03 08:59:46;;;;;;;2.13;2.00;;;20.30;41.70;;;;;;4981468;28;20454;-57
2022/06/03 09:02:26;;;;;;;2.40;2.20;;;20.30;41.80;;;;;;4981552;28;20442;-56
2022/06/03 09:05:08;;;;;;;3.20;2.23;;;20.40;41.80;;;;;;4980170;28;20509;-57
2022/06/03 09:07:54;;;;;;;2.27;2.07;;;20.30;41.80;;;;;;4984526;28;20482;-57
2022/06/03 09:10:37;;;;;;;4.30;2.40;;;20.30;41.70;;;;;;4978434;28;20486;-57
2022/06/03 09:13:38;;;;;;;3.50;2.23;;;20.30;41.70;;;;;;4985580;28;20441;-58
2022/06/03 09:16:06;;;;;;;4.23;2.23;;;20.30;41.80;;;;;;4979151;28;20420;-57
2022/06/03 09:18:39;;;;;;;2.50;2.30;;;20.30;41.80;;;;;;4980054;28;20991;-57
2022/06/03 09:21:27;;;;;;;2.60;2.40;;;20.30;41.90;;;;;;4979977;28;20510;-58
2022/06/03 09:24:01;;;;;;;2.37;2.13;;;20.30;41.80;;;;;;4977671;28;20510;-57
2022/06/03 09:26:36;;;;;;;2.47;2.27;;;20.30;41.90;;;;;;4996662;28;20789;-57
2022/06/03 09:29:05;;;;;;;3.93;2.10;;;20.30;41.80;;;;;;4980154;28;20484;-57
2022/06/03 09:31:35;;;;;;;2.23;2.13;;;20.30;41.80;;;;;;4977731;28;20517;-57
2022/06/03 09:34:01;;;;;;;2.47;2.00;;;20.30;41.90;;;;;;4981492;28;20443;-57
2022/06/03 09:36:28;;;;;;;2.97;2.77;;;20.30;41.80;;;;;;4983478;28;20456;-57
2022/06/03 09:38:58;;;;;;;2.53;2.33;;;20.30;41.80;;;;;;4998047;28;20808;-56
2022/06/03 09:41:27;;;;;;;2.23;2.13;;;20.30;41.90;;;;;;4982285;28;20429;-57
2022/06/03 09:43:54;;;;;;;2.13;1.90;;;20.30;41.90;;;;;;4981237;28;20502;-57
2022/06/03 09:46:26;;;;;;;3.10;2.27;;;20.30;41.90;;;;;;4983350;28;20507;-57
2022/06/03 09:48:52;;;;;;;2.93;2.20;;;20.30;41.90;;;;;;4983998;28;20483;-57
2022/06/03 09:51:55;;;;;;;2.57;2.30;;;20.30;41.90;;;;;;4981013;28;20488;-57
2022/06/03 09:54:12;;;;;;;2.73;2.20;;;20.30;41.90;;;;;;4981877;28;20236;-57
2022/06/03 09:56:39;;;;;;;2.60;2.40;;;20.30;42.00;;;;;;4983102;28;20430;-60
2022/06/03 09:59:05;;;;;;;4.30;2.40;;;20.30;41.90;;;;;;4982413;28;20496;-57
2022/06/03 10:01:31;;;;;;;2.37;2.17;;;20.30;41.90;;;;;;4985610;28;20769;-58
2022/06/03 10:04:01;;;;;;;2.27;2.17;;;20.30;41.90;;;;;;4981656;28;20471;-57
2022/06/03 10:14:44;;;;;;;2.20;2.10;;;20.30;42.00;;;;;;4980733;28;20501;-57
2022/06/03 10:17:11;;;;;;;2.20;2.10;;;20.30;42.00;;;;;;4983588;28;20439;-57
2022/06/03 10:19:37;;;;;;;2.23;2.03;;;20.30;42.00;;;;;;4981933;28;20307;-56
2022/06/03 10:22:09;;;;;;;2.23;2.10;;;20.30;42.10;;;;;;4984603;28;20471;-57
2022/06/03 10:24:35;;;;;;;2.60;2.40;;;20.30;42.00;;;;;;4983844;28;20466;-56
2022/06/03 10:27:04;;;;;;;2.40;2.20;;;20.30;42.00;;;;;;4984724;28;20442;-57
2022/06/03 10:29:30;;;;;;;2.20;2.10;;;20.30;42.10;;;;;;4983543;28;20213;-56
2022/06/03 10:32:06;;;;;;;2.10;2.00;;;20.30;42.10;;;;;;4980944;28;20820;-56
2022/06/03 10:34:40;;;;;;;2.23;2.13;;;20.30;42.00;;;;;;4985405;28;20451;-57
2022/06/03 10:37:10;;;;;;;2.37;2.17;;;20.30;42.00;;;;;;4982071;28;20550;-56
2022/06/03 10:39:36;;;;;;;2.53;2.43;;;20.30;42.00;;;;;;4979474;28;20455;-56
2022/06/03 10:42:02;;;;;;;2.83;2.50;;;20.30;42.00;;;;;;4983589;28;20453;-57
2022/06/03 10:44:35;;;;;;;2.63;2.43;;;20.30;42.10;;;;;;4981557;28;20475;-56
2022/06/03 10:47:02;;;;;;;2.87;2.67;;;20.30;42.10;;;;;;4997923;28;20217;-57
2022/06/03 10:49:31;;;;;;;2.80;2.20;;;20.30;42.10;;;;;;4980522;28;20451;-56
2022/06/03 11:03:21;;;;;;;2.50;2.40;;;20.30;42.10;;;;;;4984428;28;20480;-56
2022/06/03 11:05:47;;;;;;;2.60;2.50;;;20.30;42.10;;;;;;4981972;28;20462;-57
2022/06/03 11:08:13;;;;;;;2.17;2.07;;;20.30;42.20;;;;;;4984185;28;20447;-56
2022/06/03 11:10:50;;;;;;;2.30;2.20;;;20.30;42.20;;;;;;4980242;28;20446;-57
2022/06/03 11:13:30;;;;;;;2.57;2.47;;;20.30;42.10;;;;;;4986900;28;20235;-56
2022/06/03 11:16:10;;;;;;;2.60;2.50;;;20.30;42.10;;;;;;4982730;28;20465;-56
2022/06/03 11:18:35;;;;;;;2.60;2.40;;;20.30;42.20;;;;;;4982635;28;20553;-56
2022/06/03 11:21:16;;;;;;;2.70;2.50;;;20.30;42.10;;;;;;4996611;28;20948;-56
2022/06/03 11:23:42;;;;;;;2.70;2.60;;;20.30;42.10;;;;;;4983425;28;20260;-56
2022/06/03 11:26:09;;;;;;;2.20;2.10;;;20.30;42.20;;;;;;4980408;28;20502;-56
2022/06/03 11:29:03;;;;;;;2.80;2.60;;;20.30;42.10;;;;;;4981370;28;20247;-56
2022/06/03 11:31:34;;;;;;;2.40;2.30;;;20.30;42.20;;;;;;4982177;28;20458;-56
2022/06/03 11:34:08;;;;;;;2.10;2.00;;;20.30;42.20;;;;;;4988478;28;20454;-56
2022/06/03 11:36:43;;;;;;;2.27;2.17;;;20.30;42.30;;;;;;4984807;28;20470;-57
2022/06/03 11:39:11;;;;;;;2.57;2.47;;;20.30;42.20;;;;;;4987187;28;20934;-56
2022/06/03 11:41:48;;;;;;;2.40;2.30;;;20.30;42.20;;;;;;4983462;28;20433;-56
2022/06/03 11:44:19;;;;;;;2.43;2.33;;;20.30;42.20;;;;;;4980693;28;20439;-57
2022/06/03 11:47:08;;;;;;;2.60;2.50;;;20.30;43.00;;;;;;4983112;28;20992;-58
2022/06/03 11:49:34;;;;;;;2.40;2.30;;;20.30;42.20;;;;;;4983722;28;20451;-57
2022/06/03 11:52:00;;;;;;;2.30;2.20;;;20.30;42.20;;;;;;4980179;28;20443;-57
2022/06/03 11:54:27;;;;;;;2.60;2.50;;;20.30;42.20;;;;;;4982712;28;20271;-57
2022/06/03 11:56:53;;;;;;;2.50;2.40;;;20.30;42.30;;;;;;4982419;28;21142;-58
2022/06/03 11:59:28;;;;;;;2.80;2.70;;;20.30;42.20;;;;;;4980874;28;20518;-57
2022/06/03 12:02:00;;;;;;;3.07;2.90;;;20.30;42.20;;;;;;4980258;28;20472;-58
2022/06/03 12:04:40;;;;;;;2.60;2.50;;;20.30;42.20;;;;;;4981167;28;20475;-57
2022/06/03 12:07:35;;;;;;;2.70;2.60;;;20.30;42.20;;;;;;4983327;28;20450;-57
2022/06/03 12:10:10;;;;;;;2.60;2.50;;;20.30;42.30;;;;;;4980329;28;20537;-57
2022/06/03 12:15:33;;;;;;;2.40;2.30;;;20.30;42.30;;;;;;4980854;28;20878;-57
2022/06/03 12:18:09;;;;;;;2.53;2.43;;;20.30;42.30;;;;;;4980746;28;20455;-57
2022/06/03 12:20:35;;;;;;;2.13;2.03;;;20.30;42.30;;;;;;4979226;28;20446;-57
2022/06/03 12:23:20;;;;;;;2.30;2.20;;;20.30;42.30;;;;;;4979793;28;20801;-57
2022/06/03 12:25:49;;;;;;;2.00;1.90;;;20.30;42.30;;;;;;4978757;28;20331;-58
2022/06/03 12:28:23;;;;;;;2.60;2.40;;;20.30;42.20;;;;;;4981386;28;20454;-57
2022/06/03 12:30:54;;;;;;;2.73;2.63;;;20.30;42.20;;;;;;4981782;28;20478;-57
2022/06/03 12:33:33;;;;;;;2.60;2.50;;;20.30;42.20;;;;;;4978360;28;20428;-56
2022/06/03 12:35:59;;;;;;;2.30;2.20;;;20.30;42.20;;;;;;4980532;28;20468;-58
2022/06/03 12:38:33;;;;;;;3.00;2.80;;;20.30;42.20;;;;;;4976578;28;20459;-58
2022/06/03 12:41:05;;;;;;;3.10;2.90;;;20.30;42.20;;;;;;4985140;28;20229;-59
2022/06/03 12:43:54;;;;;;;2.50;2.40;;;20.30;42.20;;;;;;4982765;28;20511;-58
2022/06/03 12:46:42;;;;;;;2.50;2.40;;;20.30;42.20;;;;;;4974482;28;20949;-58
2022/06/03 12:49:48;;;;;;;2.60;2.40;;;20.30;42.20;;;;;;4976080;28;20494;-57
2022/06/03 12:52:25;;;;;;;2.70;2.53;;;20.30;42.20;;;;;;4980338;28;20457;-57
2022/06/03 12:55:02;;;;;;;2.20;2.10;;;20.30;42.20;;;;;;4980238;28;20477;-57
2022/06/03 12:57:37;;;;;;;2.30;2.20;;;20.30;42.30;;;;;;4981052;28;20455;-58
2022/06/03 13:00:36;;;;;;;2.40;2.30;;;20.30;42.20;;;;;;4982778;28;20446;-57
2022/06/03 13:03:26;;;;;;;2.50;2.40;;;20.30;42.20;;;;;;4982431;28;20863;-59
2022/06/03 13:05:59;;;;;;;3.10;3.00;;;20.30;42.30;;;;;;4984982;28;20998;-57
2022/06/03 13:08:27;;;;;;;2.80;2.70;;;20.30;42.20;;;;;;4986492;28;20465;-57
2022/06/03 13:11:30;;;;;;;2.30;2.20;;;20.30;42.20;;;;;;4984459;28;20465;-57
2022/06/03 13:13:56;;;;;;;2.60;2.50;;;20.30;42.30;;;;;;4990490;28;20455;-57
2022/06/03 13:16:37;;;;;;;2.60;2.50;;;20.20;42.10;;;;;;4985963;28;20457;-57
2022/06/03 13:19:18;;;;;;;3.00;2.90;;;20.30;42.20;;;;;;4982581;28;20224;-59
2022/06/03 13:22:07;;;;;;;2.67;2.57;;;20.30;42.20;;;;;;4988135;28;20469;-57
2022/06/03 13:24:41;;;;;;;2.60;2.50;;;20.30;42.30;;;;;;4981603;28;21448;-58
2022/06/03 13:27:29;;;;;;;3.00;2.80;;;20.20;42.10;;;;;;4986368;28;20450;-58
2022/06/03 13:29:57;;;;;;;2.43;2.33;;;20.30;42.30;;;;;;4986398;28;20462;-58
2022/06/03 13:32:34;;;;;;;2.40;2.30;;;20.30;42.30;;;;;;4983605;28;20457;-58
2022/06/03 13:35:31;;;;;;;3.00;2.90;;;20.30;42.30;;;;;;4984393;28;20424;-58
2022/06/03 13:38:00;;;;;;;2.40;2.30;;;20.30;42.30;;;;;;4979753;28;20833;-57
2022/06/03 13:40:26;;;;;;;2.67;2.57;;;20.30;42.30;;;;;;4983194;28;20554;-57
2022/06/03 13:43:00;;;;;;;3.30;3.10;;;20.30;42.30;;;;;;4983544;28;20467;-57
2022/06/03 13:45:47;;;;;;;2.90;2.80;;;20.30;42.30;;;;;;4983110;28;20719;-57
2022/06/03 13:48:31;;;;;;;3.13;2.93;;;20.30;42.30;;;;;;4984831;28;20797;-58
2022/06/03 13:51:27;;;;;;;2.80;2.70;;;20.30;42.30;;;;;;4979749;28;20948;-57
2022/06/03 13:54:00;;;;;;;2.80;2.70;;;20.30;42.30;;;;;;4983269;28;20479;-58
2022/06/03 13:56:29;;;;;;;3.43;3.23;;;20.30;42.30;;;;;;4982405;28;20928;-57
2022/06/03 13:58:57;;;;;;;7.30;3.20;;;20.30;42.30;;;;;;4984983;28;20443;-57
2022/06/03 14:01:42;;;;;;;3.30;3.10;;;20.30;42.40;;;;;;4981509;28;21238;-57
2022/06/03 14:04:24;;;;;;;2.80;2.70;;;20.30;42.40;;;;;;4981653;28;20463;-59
2022/06/03 14:07:02;;;;;;;3.23;3.03;;;20.30;42.40;;;;;;4983711;28;20920;-57
2022/06/03 14:09:31;;;;;;;4.13;3.93;;;20.30;42.40;;;;;;4982131;28;20545;-57
2022/06/03 14:12:07;;;;;;;3.13;3.03;;;20.30;42.40;;;;;;4983747;28;20491;-57
2022/06/03 14:14:44;;;;;;;2.43;2.33;;;20.30;42.40;;;;;;4984070;28;21026;-57
2022/06/03 14:17:50;;;;;;;3.23;3.13;;;20.30;42.40;;;;;;4980214;28;20541;-57
2022/06/03 14:20:31;;;;;;;2.67;2.57;;;20.30;42.40;;;;;;4986739;28;20458;-57
2022/06/03 14:23:08;;;;;;;3.10;2.90;;;20.30;42.40;;;;;;4983065;28;20448;-57
2022/06/03 14:25:40;;;;;;;3.37;3.17;;;20.30;42.40;;;;;;4982042;28;20441;-57
2022/06/03 14:28:27;;;;;;;2.73;2.63;;;20.30;42.40;;;;;;4982125;28;20452;-57
2022/06/03 14:31:11;;;;;;;3.00;2.90;;;20.30;42.40;;;;;;4980786;28;20501;-57
2022/06/03 14:33:48;;;;;;;3.10;3.00;;;20.20;42.30;;;;;;4986747;28;20456;-57
2022/06/03 14:36:18;;;;;;;3.73;3.53;;;20.30;42.40;;;;;;4984131;28;20450;-57
2022/06/03 14:38:58;;;;;;;3.20;3.10;;;20.30;42.40;;;;;;4981279;28;20454;-57
2022/06/03 14:41:27;;;;;;;3.20;3.10;;;20.30;42.40;;;;;;4983837;28;20935;-57
2022/06/03 14:43:55;;;;;;;2.83;2.73;;;20.30;42.50;;;;;;4981911;28;20483;-57